RJOI/IWA METAR and TAF weather

Enter ICAO airport designator
Station Type Date Time Source
RJOI METAR 2022/12/10 01:56 UTC NOAA

RJOI 100156Z VRB04KT 9999 FEW030 14/06 A3007 RMK AO2 SLP184 T01390056


Station Type Date Time Source
RJOI Decoded METAR 2022/12/10 01:56 UTC NOAA

MCAS IWAKUNI,JAPAN, JA, Japan (RJOI) 34-09N 132-14E 5M
Dec 09, 2022 - 08:56 PM EST / 2022.12.10 0156 UTC
Wind: Variable at 5 MPH (4 KT):0
Visibility: greater than 7 mile(s):0
Sky conditions: mostly clear
Temperature: 57.0 F (13.9 C)
Dew Point: 42.1 F (5.6 C)
Relative Humidity: 57%
Pressure (altimeter): 30.07 in. Hg (1018 hPa)
ob: RJOI 100156Z VRB04KT 9999 FEW030 14/06 A3007 RMK AO2 SLP184 T01390056
cycle: 2

Station Type Date Time Source
RJOI TAF 2022/12/09 21:59 UTC NOAA

TAF RJOI 0921/1021 30009KT 9999 FEW030 SCT050 512505 QNH2996NS
FM100500 16006KT 9999 FEW030 SCT060 512505 QNH2994INS
TEMPO 1005/1008 VRB06KT
FM101000 31008KT 9999 FEW030 SCT090 512305 QNH2994INS T14/1005Z T07/1020Z

Example: see airport list